VK4VP-5 Buderim QLD AU current weather conditions

sailwx.info

Wind from 121 at 0 knots gusting 5

Air temperature 15.6° C
Dewpoint 14.6° C

Last reported at 2014-Sep-20 10:46 UTC.
Time now 2014-Sep-20 11:55 UTC

Location: S 26°42' E 153°05'.
View on Google Maps.

See reports from other nearby stations

  
Tides and Currents Weather Stations Pressure Air Temp Water Temp Dewpoint Dewpoint Depression Visibility Wind Speed Wind Dir Waves Ship Positions
date/time (UTC)wind fromknots sea level pressurealtimeterstation pressurevisibilityair tempwater tempwave heightnotes
2014-Sep-20 10:46 121 0 gusting 5 15.6
2014-Sep-20 10:36 120 15.6
2014-Sep-20 10:26 120 15.6
2014-Sep-20 10:16 120 15.6
2014-Sep-20 10:06 120 15.6
2014-Sep-20 09:56 120 15.6
2014-Sep-20 09:46 121 16.1
2014-Sep-20 09:36 106 0 gusting 5 16.1
2014-Sep-20 09:26 074 0 gusting 5 16.7
2014-Sep-20 09:16 16.7
2014-Sep-20 09:06 070 16.7
2014-Sep-20 08:56 070 16.7
2014-Sep-20 08:46 070 16.7
2014-Sep-20 08:36 075 0 gusting 7 16.7
2014-Sep-20 08:26 105 16.7
2014-Sep-20 08:16 105 16.7
2014-Sep-20 08:06 109 0 gusting 6 16.7
2014-Sep-20 07:56 121 0 gusting 11 16.7
2014-Sep-20 07:46 130 1 gusting 8 17.2
2014-Sep-20 07:36 158 0 gusting 7 17.2
2014-Sep-20 07:26 143 17.2
2014-Sep-20 07:16 144 17.2
2014-Sep-20 07:06 146 17.2
2014-Sep-20 06:56 146 17.2
2014-Sep-20 06:46 146 17.8
2014-Sep-20 06:36 146 17.8
2014-Sep-20 06:26 149 17.8
2014-Sep-20 06:16 154 17.8
2014-Sep-20 06:06 154 17.8
2014-Sep-20 05:56 151 1 gusting 8 17.2
2014-Sep-20 05:46 142 2 gusting 6 17.2
2014-Sep-20 05:19 160 6 gusting 17 18.3
2014-Sep-20 05:13 153 4 gusting 15 18.9
2014-Sep-20 05:09 122 2 gusting 8 19.4
2014-Sep-20 04:59 096 1 gusting 6 19.4
2014-Sep-20 04:55 100 1 gusting 6 20.0
2014-Sep-20 04:49 090 0 gusting 8 20.0
2014-Sep-20 04:45 109 0 gusting 8 20.0
2014-Sep-20 04:39 128 0 gusting 8 20.0
2014-Sep-20 04:29 119 2 gusting 8 19.4
2014-Sep-20 04:22 127 3 gusting 9 19.4
2014-Sep-20 04:12 126 4 gusting 11 20.0
2014-Sep-20 04:02 120 1 gusting 7 19.4
2014-Sep-20 03:52 137 1 gusting 8 19.4
2014-Sep-20 03:36 111 0 gusting 8 20.6
2014-Sep-20 03:26 121 2 gusting 9 21.1
2014-Sep-20 03:16 125 2 gusting 8 21.7
2014-Sep-20 03:06 100 3 gusting 10 21.7
2014-Sep-20 02:56 117 2 gusting 8 21.7
2014-Sep-20 02:46 111 1 gusting 8 21.1
2014-Sep-20 02:36 114 1 gusting 6 20.6
2014-Sep-20 02:26 116 1 gusting 6 20.6
2014-Sep-20 02:16 115 0 gusting 5 20.0
2014-Sep-20 02:06 128 1 gusting 8 19.4
2014-Sep-20 02:05 130 1 gusting 8 19.4
2014-Sep-20 01:56 143 1 gusting 6 20.0
2014-Sep-20 01:55 143 1 gusting 6 20.0
2014-Sep-20 01:46 144 1 gusting 6 20.0
2014-Sep-20 01:36 149 2 gusting 8 20.0
2014-Sep-20 01:26 146 2 gusting 10 20.0
2014-Sep-20 01:16 146 1 gusting 7 20.0
2014-Sep-20 01:06 109 1 gusting 7 19.4
2014-Sep-20 01:05 111 2 gusting 7 19.4
2014-Sep-20 00:56 155 2 gusting 8 19.4
2014-Sep-20 00:55 159 1 gusting 8 19.4
2014-Sep-20 00:46 147 2 gusting 8 18.9
2014-Sep-20 00:36 151 2 gusting 8 18.9
2014-Sep-20 00:26 166 3 gusting 8 19.4
2014-Sep-20 00:16 139 3 gusting 8 20.0
2014-Sep-20 00:06 137 2 gusting 8 21.1
2014-Sep-19 23:56 120 2 gusting 9 21.7
2014-Sep-19 23:46 016 2 gusting 8 22.8
2014-Sep-19 23:36 339 1 gusting 6 22.8
2014-Sep-19 23:26 305 1 gusting 6 23.3
2014-Sep-19 23:16 147 22.8
2014-Sep-19 23:06 148 22.2
2014-Sep-19 22:56 147 0 gusting 2 22.2
2014-Sep-19 22:46 147 21.7
2014-Sep-19 22:36 136 21.1
2014-Sep-19 22:26 111 0 gusting 6 20.6
2014-Sep-19 22:16 084 1 gusting 5 20.6
2014-Sep-19 22:06 066 0 gusting 3 19.4
2014-Sep-19 21:56 063 0 gusting 3 18.9
2014-Sep-19 21:46 060 1 gusting 5 18.3
2014-Sep-19 21:36 059 0 gusting 3 17.8
2014-Sep-19 21:26 060 17.2
2014-Sep-19 21:25 060 17.2
2014-Sep-19 21:16 060 16.1
2014-Sep-19 21:06 15.0
2014-Sep-19 20:56 14.4
2014-Sep-19 20:55 060 14.4
2014-Sep-19 20:46 060 13.9
2014-Sep-19 20:36 060 13.3
2014-Sep-19 20:35 060 13.3
2014-Sep-19 20:26 058 12.8
2014-Sep-19 20:16 12.2
2014-Sep-19 20:06 12.2
2014-Sep-19 19:56 12.2
2014-Sep-19 19:46 12.2
2014-Sep-19 19:36 12.2
2014-Sep-19 19:26 12.2
2014-Sep-19 19:16 12.2
2014-Sep-19 19:06 12.8
2014-Sep-19 18:56 12.8
2014-Sep-19 18:46 12.8
2014-Sep-19 18:45 12.8
2014-Sep-19 18:36 12.8
2014-Sep-19 18:35 12.8
2014-Sep-19 18:26 12.8
2014-Sep-19 18:25 12.8
2014-Sep-19 18:16 021 12.8
2014-Sep-19 18:15 021 13.3
2014-Sep-19 18:06 13.3
2014-Sep-19 18:05 13.3
2014-Sep-19 17:56 13.3
2014-Sep-19 17:55 12.8
2014-Sep-19 17:46 13.3
2014-Sep-19 17:36 13.3
2014-Sep-19 17:26 13.3
2014-Sep-19 17:25 13.3
2014-Sep-19 17:16 13.9
2014-Sep-19 17:06 13.9
2014-Sep-19 16:56 13.9
2014-Sep-19 16:46 13.9
2014-Sep-19 16:36 13.9
2014-Sep-19 16:26 13.9
2014-Sep-19 16:16 021 13.9
2014-Sep-19 16:06 022 14.4
2014-Sep-19 15:56 022 15.6
2014-Sep-19 15:55 022 16.1
2014-Sep-19 15:46 021 16.7
2014-Sep-19 15:36 022 16.7
2014-Sep-19 15:26 022 16.7
2014-Sep-19 15:16 021 17.2
2014-Sep-19 15:06 021 17.8
2014-Sep-19 14:56 021 18.3
2014-Sep-19 14:46 022 0 gusting 5 18.3
2014-Sep-19 14:36 023 1 gusting 3 18.3
2014-Sep-19 14:35 022 1 gusting 3 18.3
2014-Sep-19 14:26 024 1 gusting 5 18.3
2014-Sep-19 14:16 025 1 gusting 5 18.3
2014-Sep-19 14:06 026 0 gusting 3 18.3
2014-Sep-19 13:56 026 0 gusting 3 18.3
2014-Sep-19 13:46 026 1 gusting 5 17.8
2014-Sep-19 13:36 026 16.7
2014-Sep-19 13:26 15.6
2014-Sep-19 13:25 15.6
2014-Sep-19 13:16 15.6
2014-Sep-19 13:06 15.6
2014-Sep-19 12:56 15.6
2014-Sep-19 12:46 15.6
2014-Sep-19 12:36 027 15.6
2014-Sep-19 12:26 026 16.7
2014-Sep-19 12:16 026 17.8
2014-Sep-19 12:15 026 17.8
2014-Sep-19 12:06 027 18.3
2014-Sep-19 12:05 026 18.3
2014-Sep-19 11:56 026 18.9
2014-Sep-19 11:55 026 0 gusting 2 18.9
2014-Sep-19 11:46 026 0 gusting 5 18.9
2014-Sep-19 11:36 026 1 gusting 5 18.9
2014-Sep-19 11:26 026 0 gusting 6 18.9
2014-Sep-19 11:16 027 18.9
2014-Sep-19 11:06 027 1 gusting 6 18.9
2014-Sep-19 10:56 037 1 gusting 8 18.9
2014-Sep-19 10:46 044 1 gusting 8 18.9
2014-Sep-19 10:36 048 1 gusting 6 19.4
2014-Sep-19 10:26 050 1 gusting 6 18.9
2014-Sep-19 10:16 050 0 gusting 3 18.9
2014-Sep-19 10:06 050 19.4
2014-Sep-19 10:05 050 19.4
2014-Sep-19 09:56 050 19.4
2014-Sep-19 09:46 050 19.4
2014-Sep-19 09:36 050 19.4
2014-Sep-19 09:26 050 0 gusting 5 20.0
2014-Sep-19 09:16 050 0 gusting 6 20.0
2014-Sep-19 09:06 052 1 gusting 6 20.0
2014-Sep-19 08:56 054 0 gusting 5 20.0
2014-Sep-19 08:55 054 0 gusting 5 20.0
2014-Sep-19 08:46 054 0 gusting 3 20.0
2014-Sep-19 08:36 054 1 gusting 6 20.0
2014-Sep-19 08:26 054 1 gusting 7 20.0
2014-Sep-19 08:16 054 1 gusting 5 20.0
2014-Sep-19 08:06 054 1 gusting 6 20.0
2014-Sep-19 08:05 053 1 gusting 7 20.0
2014-Sep-19 07:56 052 0 gusting 7 20.0
2014-Sep-19 07:46 051 0 gusting 3 20.6
2014-Sep-19 07:45 052 0 gusting 3 20.6
2014-Sep-19 07:36 052 1 gusting 6 20.6
2014-Sep-19 07:26 045 1 gusting 7 20.6
2014-Sep-19 07:16 049 2 gusting 8 21.1
2014-Sep-19 07:06 054 3 gusting 9 21.1
2014-Sep-19 06:56 051 3 gusting 10 21.1
2014-Sep-19 06:46 044 4 gusting 11 21.1
2014-Sep-19 06:36 051 3 gusting 9 21.7
2014-Sep-19 06:26 046 4 gusting 10 21.7
2014-Sep-19 06:16 039 6 gusting 16 21.7
2014-Sep-19 06:06 044 5 gusting 11 21.7
2014-Sep-19 05:56 061 3 gusting 8 21.7
2014-Sep-19 05:55 060 3 gusting 8 21.7
2014-Sep-19 05:46 049 5 gusting 13 21.7
2014-Sep-19 05:36 052 4 gusting 11 21.7
2014-Sep-19 05:26 036 6 gusting 13 21.7
2014-Sep-19 05:16 039 4 gusting 10 21.7
2014-Sep-19 05:06 040 4 gusting 10 21.7
2014-Sep-19 04:56 051 3 gusting 9 22.2
2014-Sep-19 04:46 052 3 gusting 10 21.7
2014-Sep-19 04:45 056 3 gusting 10 21.7
2014-Sep-19 04:36 060 1 gusting 11 22.2
2014-Sep-19 04:26 048 4 gusting 12 21.7
2014-Sep-19 04:16 052 2 gusting 8 22.2
2014-Sep-19 04:06 040 2 gusting 8 22.2
2014-Sep-19 03:56 079 2 gusting 9 21.7
2014-Sep-19 03:46 041 2 gusting 8 21.7
2014-Sep-19 03:36 063 3 gusting 11 22.2
2014-Sep-19 03:26 030 3 gusting 10 22.2
2014-Sep-19 03:16 053 4 gusting 12 22.2
2014-Sep-19 03:06 043 4 gusting 11 21.7
2014-Sep-19 03:05 043 4 gusting 11 21.7
2014-Sep-19 02:56 054 4 gusting 11 21.7
2014-Sep-19 02:46 042 4 gusting 9 21.7
2014-Sep-19 02:45 043 4 gusting 13 22.2
2014-Sep-19 02:36 063 2 gusting 13 22.2
2014-Sep-19 02:26 082 3 gusting 9 22.2
2014-Sep-19 02:25 078 3 gusting 9 22.2
2014-Sep-19 02:16 076 3 gusting 10 21.7
2014-Sep-19 02:15 066 4 gusting 10 21.7
2014-Sep-19 02:06 051 4 gusting 11 21.7
2014-Sep-19 01:56 055 2 gusting 9 21.7
2014-Sep-19 01:46 044 4 gusting 9 21.7
2014-Sep-19 01:36 044 5 gusting 12 21.7
2014-Sep-19 01:26 046 2 gusting 8 22.2
2014-Sep-19 01:25 045 3 gusting 8 22.2
2014-Sep-19 01:16 048 3 gusting 10 21.7
2014-Sep-19 01:06 054 3 gusting 10 22.2
2014-Sep-19 01:05 054 3 gusting 8 21.7
2014-Sep-19 00:56 051 3 gusting 9 22.2
2014-Sep-19 00:46 056 3 gusting 9 22.2
2014-Sep-19 00:36 043 2 gusting 8 22.2
2014-Sep-19 00:35 042 2 gusting 8 22.8
2014-Sep-19 00:26 083 1 gusting 7 22.2
2014-Sep-19 00:16 090 1 gusting 8 22.2
2014-Sep-19 00:15 080 1 gusting 8 22.2
2014-Sep-19 00:06 042 2 gusting 9 22.2
2014-Sep-18 23:56 070 1 gusting 6 22.2
2014-Sep-18 23:46 073 1 gusting 6 22.2
2014-Sep-18 23:36 020 2 gusting 8 21.7
2014-Sep-18 23:35 014 3 gusting 8 21.7
2014-Sep-18 23:26 017 3 gusting 9 21.7
2014-Sep-18 23:25 017 3 gusting 9 21.7
2014-Sep-18 23:16 007 1 gusting 6 21.7
2014-Sep-18 23:06 015 3 gusting 8 21.1
2014-Sep-18 22:56 039 0 gusting 6 21.1
2014-Sep-18 22:46 040 20.6
2014-Sep-18 22:45 040 20.6
2014-Sep-18 22:36 040 20.0
2014-Sep-18 22:26 040 19.4
2014-Sep-18 22:25 040 19.4
2014-Sep-18 22:16 041 19.4
2014-Sep-18 22:06 040 18.9
2014-Sep-18 22:05 040 18.9
2014-Sep-18 21:56 18.3
2014-Sep-18 21:55 18.3
2014-Sep-18 21:46 17.8
2014-Sep-18 21:45 17.2
2014-Sep-18 21:36 16.7
2014-Sep-18 21:26 15.6
2014-Sep-18 21:25 15.6
2014-Sep-18 21:16 14.4
2014-Sep-18 21:01 13.3
2014-Sep-18 20:57 12.2
2014-Sep-18 20:47 11.7
2014-Sep-18 20:41 10.6
2014-Sep-18 20:37 10.0
2014-Sep-18 20:27 9.4
2014-Sep-18 20:17 8.9
2014-Sep-18 20:07 8.9
2014-Sep-18 19:57 8.9
2014-Sep-18 19:51 041 8.9
2014-Sep-18 19:47 041 8.9
2014-Sep-18 19:41 040 8.9
2014-Sep-18 19:37 8.9
2014-Sep-18 19:27 8.9
2014-Sep-18 19:17 8.9
2014-Sep-18 19:11 8.9
2014-Sep-18 19:07 8.9
2014-Sep-18 19:01 8.9
2014-Sep-18 18:57 8.9
2014-Sep-18 18:51 9.4
2014-Sep-18 18:47 9.4
2014-Sep-18 18:41 9.4
2014-Sep-18 18:37 9.4
2014-Sep-18 18:27 9.4
2014-Sep-18 18:21 9.4
2014-Sep-18 18:17 9.4
2014-Sep-18 18:07 9.4
2014-Sep-18 17:57 9.4
2014-Sep-18 17:47 9.4
2014-Sep-18 17:37 9.4
2014-Sep-18 17:27 9.4
2014-Sep-18 17:21 9.4
2014-Sep-18 17:17 9.4
2014-Sep-18 17:07 10.0
2014-Sep-18 17:01 10.0
2014-Sep-18 16:57 10.0
2014-Sep-18 16:47 10.0
2014-Sep-18 16:41 10.0
2014-Sep-18 16:37 10.0
2014-Sep-18 16:27 10.0
2014-Sep-18 16:17 10.0
2014-Sep-18 16:07 10.0
2014-Sep-18 15:57 10.6
2014-Sep-18 15:51 10.6
2014-Sep-18 15:47 10.6
2014-Sep-18 15:37 10.6
2014-Sep-18 15:27 10.6
2014-Sep-18 15:17 10.6
2014-Sep-18 15:07 10.6
2014-Sep-18 14:57 10.6
2014-Sep-18 14:47 11.1
2014-Sep-18 14:37 11.1
2014-Sep-18 14:31 11.1
2014-Sep-18 14:27 11.1
2014-Sep-18 14:17 11.1
2014-Sep-18 14:07 11.1
2014-Sep-18 13:57 11.7
2014-Sep-18 13:51 11.7
2014-Sep-18 13:47 11.7
2014-Sep-18 13:41 11.7
2014-Sep-18 13:37 11.7
2014-Sep-18 13:27 11.7
2014-Sep-18 13:17 12.2
2014-Sep-18 13:11 12.2
2014-Sep-18 13:07 12.2
2014-Sep-18 13:01 12.2
2014-Sep-18 12:57 12.2
2014-Sep-18 12:47 12.2
2014-Sep-18 12:41 12.2
2014-Sep-18 12:37 12.2
2014-Sep-18 12:31 040 12.2
2014-Sep-18 12:27 040 12.2
2014-Sep-18 12:17 040 12.8
2014-Sep-18 12:07 12.8
2014-Sep-18 11:57 12.8
2014-Sep-18 11:51 12.8
2014-Sep-18 11:47 12.8
2014-Sep-18 11:37 13.3
2014-Sep-18 11:27 13.3
2014-Sep-18 11:21 13.3
2014-Sep-18 11:17 13.3
2014-Sep-18 11:07 13.3
2014-Sep-18 11:01 13.9